createdAt,value
2018-11-22T00:01:55.483Z,6.63
2018-11-22T00:04:43.962Z,6.41
2018-11-22T00:07:32.526Z,6.68
2018-11-22T00:10:21.360Z,6.25
2018-11-22T00:13:09.701Z,6.37
2018-11-22T00:15:58.160Z,5.99
2018-11-22T00:18:46.607Z,6.54
2018-11-22T00:21:35.195Z,6.82
2018-11-22T00:24:23.402Z,6.53
2018-11-22T00:27:11.818Z,6.35
2018-11-22T00:30:00.161Z,6.20
2018-11-22T00:32:48.616Z,6.46
2018-11-22T00:35:36.941Z,6.59
2018-11-22T00:38:25.380Z,5.82
2018-11-22T00:40:54.294Z,6.39
2018-11-22T00:43:35.943Z,6.80
2018-11-22T00:46:17.844Z,6.84
2018-11-22T00:48:58.920Z,6.61
2018-11-22T00:51:40.746Z,6.53
2018-11-22T00:54:21.829Z,6.48
2018-11-22T00:57:03.522Z,5.99
2018-11-22T00:59:45.127Z,6.27
2018-11-22T01:02:14.200Z,6.64
2018-11-22T01:05:02.628Z,6.73
2018-11-22T01:07:50.985Z,6.67
2018-11-22T01:10:39.392Z,6.52
2018-11-22T01:13:27.718Z,6.42
2018-11-22T01:16:16.290Z,6.26
2018-11-22T01:19:04.985Z,6.47
2018-11-22T01:21:34.305Z,6.17
2018-11-22T01:24:22.702Z,6.71
2018-11-22T01:27:11.070Z,6.57
2018-11-22T01:29:59.403Z,6.23
2018-11-22T01:32:48.838Z,6.32
2018-11-22T01:35:37.204Z,6.74
2018-11-22T01:38:25.521Z,6.46
2018-11-22T01:41:13.836Z,6.73
2018-11-22T01:44:02.303Z,6.69
2018-11-22T01:46:50.637Z,6.82
2018-11-22T01:49:39.055Z,6.57
2018-11-22T01:52:27.298Z,6.47
2018-11-22T01:55:34.717Z,6.71
2018-11-22T01:58:23.099Z,6.09
2018-11-22T02:01:11.443Z,6.32
2018-11-22T02:04:00.043Z,6.51
2018-11-22T02:06:48.441Z,6.47
2018-11-22T02:09:36.763Z,6.59
2018-11-22T02:12:25.134Z,6.30
2018-11-22T02:19:17.133Z,6.57
2018-11-22T02:22:05.492Z,6.31
2018-11-22T02:24:53.932Z,6.41
2018-11-22T02:27:42.503Z,5.95
2018-11-22T02:30:16.641Z,6.22
2018-11-22T02:33:05.216Z,6.07
2018-11-22T02:35:53.640Z,6.15
2018-11-22T02:38:42.022Z,6.05
2018-11-22T02:41:11.124Z,5.89
2018-11-22T02:47:12.556Z,6.29
2018-11-22T02:50:00.976Z,5.70
2018-11-22T02:52:49.757Z,6.47
2018-11-22T02:55:38.082Z,6.70
2018-11-22T02:58:26.418Z,6.91
2018-11-22T03:01:14.849Z,6.82
2018-11-22T03:04:03.279Z,6.19
2018-11-22T03:06:51.636Z,5.97
2018-11-22T03:09:39.937Z,6.67
2018-11-22T03:12:28.403Z,6.38
2018-11-22T03:15:16.769Z,6.70
2018-11-22T03:18:05.361Z,6.41
2018-11-22T03:20:53.709Z,6.51
2018-11-22T03:23:42.104Z,6.65
2018-11-22T03:26:30.419Z,6.77
2018-11-22T03:28:59.951Z,6.59
2018-11-22T03:31:48.303Z,6.61
2018-11-22T03:34:36.643Z,6.39
2018-11-22T03:37:25.038Z,6.72
2018-11-22T03:40:17.638Z,6.95
2018-11-22T03:42:59.457Z,7.08
2018-11-22T03:45:40.251Z,6.40
2018-11-22T03:48:22.035Z,6.53
2018-11-22T03:51:03.263Z,6.50
2018-11-22T03:53:44.815Z,5.98
2018-11-22T03:56:25.797Z,6.18
2018-11-22T03:58:55.091Z,6.52
2018-11-22T04:01:43.541Z,6.22
2018-11-22T04:04:32.148Z,6.19
2018-11-22T04:07:20.508Z,6.15
2018-11-22T04:10:09.823Z,6.50
2018-11-22T04:12:58.232Z,6.06
2018-11-22T04:15:46.690Z,6.48
2018-11-22T04:18:35.098Z,6.62
2018-11-22T04:21:23.445Z,6.66
2018-11-22T04:24:12.060Z,6.80
2018-11-22T04:27:01.098Z,6.15
2018-11-22T04:29:48.886Z,6.74
2018-11-22T04:32:37.185Z,6.32
2018-11-22T04:35:25.853Z,6.62
2018-11-22T04:37:54.883Z,6.82
2018-11-22T04:40:43.589Z,6.71
2018-11-22T04:43:12.645Z,6.70
2018-11-22T04:46:01.167Z,6.59
2018-11-22T04:48:49.567Z,6.72
2018-11-22T04:51:37.994Z,6.60
2018-11-22T04:54:26.411Z,6.41
2018-11-22T04:57:14.722Z,6.73
2018-11-22T05:00:03.294Z,6.68
2018-11-22T05:02:32.433Z,6.23
2018-11-22T05:05:22.169Z,6.66
2018-11-22T05:08:10.517Z,6.73
2018-11-22T05:10:39.507Z,7.15
2018-11-22T05:13:27.887Z,7.01
2018-11-22T05:16:16.259Z,6.90
2018-11-22T05:19:04.602Z,7.19
2018-11-22T05:21:53.023Z,6.40
2018-11-22T05:24:41.365Z,6.92
2018-11-22T05:27:29.764Z,6.15
2018-11-22T05:30:19.829Z,6.17
2018-11-22T05:32:48.952Z,5.94
2018-11-22T05:35:37.289Z,6.34
2018-11-22T05:38:25.735Z,6.61
2018-11-22T05:41:14.108Z,6.31
2018-11-22T05:43:43.381Z,7.21
2018-11-22T05:46:31.821Z,6.67
2018-11-22T05:49:00.871Z,6.77
2018-11-22T05:51:29.867Z,7.05
2018-11-22T05:54:18.301Z,7.19
2018-11-22T05:57:06.732Z,6.88
2018-11-22T05:59:35.748Z,6.71
2018-11-22T06:02:24.406Z,7.00
2018-11-22T06:05:13.372Z,6.52
2018-11-22T06:08:01.936Z,6.27
2018-11-22T06:10:32.571Z,6.06
2018-11-22T06:13:20.968Z,6.19
2018-11-22T06:16:09.311Z,5.97
2018-11-22T06:18:38.265Z,6.33
2018-11-22T06:21:07.361Z,6.39
2018-11-22T06:23:55.803Z,6.16
2018-11-22T06:26:44.162Z,6.43
2018-11-22T06:29:32.600Z,6.73
2018-11-22T06:32:21.133Z,6.65
2018-11-22T06:35:09.868Z,7.58
2018-11-22T06:37:39.071Z,8.85
2018-11-22T06:40:27.409Z,6.67
2018-11-22T06:43:08.687Z,6.12
2018-11-22T06:45:49.515Z,6.37
2018-11-22T06:48:18.780Z,6.84
2018-11-22T06:51:07.125Z,6.85
2018-11-22T06:53:55.449Z,6.37
2018-11-22T06:56:43.784Z,6.38
2018-11-22T06:59:13.047Z,6.37
2018-11-22T07:04:55.835Z,6.71
2018-11-22T07:07:44.260Z,6.33
2018-11-22T07:10:32.639Z,6.54
2018-11-22T07:13:02.146Z,6.42
2018-11-22T07:15:50.471Z,6.81
2018-11-22T07:18:38.795Z,6.44
2018-11-22T07:21:27.231Z,6.19
2018-11-22T07:24:15.722Z,5.98
2018-11-22T07:27:04.090Z,6.03
2018-11-22T07:29:52.452Z,6.25
2018-11-22T07:32:40.939Z,6.27
2018-11-22T07:35:31.016Z,5.92
2018-11-22T07:38:19.440Z,6.51
2018-11-22T07:40:48.474Z,6.71
2018-11-22T07:47:41.277Z,5.97
2018-11-22T07:52:59.401Z,6.44
2018-11-22T07:55:47.754Z,6.06
2018-11-22T07:58:36.119Z,6.05
2018-11-22T08:01:24.437Z,6.31
2018-11-22T08:03:53.402Z,6.74
2018-11-22T08:06:41.770Z,6.33
2018-11-22T08:09:30.380Z,6.79
2018-11-22T08:12:25.768Z,6.63
2018-11-22T08:14:47.867Z,6.89
2018-11-22T08:17:16.858Z,6.51
2018-11-22T08:19:45.830Z,6.20
2018-11-22T08:22:34.138Z,6.40
2018-11-22T08:25:03.617Z,7.04
2018-11-22T08:27:52.464Z,6.48
2018-11-22T08:30:22.344Z,6.20
2018-11-22T08:33:10.654Z,6.33
2018-11-22T08:35:39.608Z,6.83
2018-11-22T08:38:27.932Z,7.12
2018-11-22T08:41:16.299Z,7.01
2018-11-22T08:43:45.283Z,6.79
2018-11-22T08:46:33.680Z,6.25
2018-11-22T08:49:21.981Z,6.24
2018-11-22T08:52:10.378Z,6.39
2018-11-22T08:54:58.713Z,6.57
2018-11-22T08:57:47.115Z,6.81
2018-11-22T09:00:17.411Z,6.30
2018-11-22T09:03:05.778Z,6.41
2018-11-22T09:05:54.126Z,6.83
2018-11-22T09:08:23.109Z,6.96
2018-11-22T09:14:00.937Z,7.05
2018-11-22T09:16:29.958Z,7.31
2018-11-22T09:22:48.826Z,7.39
2018-11-22T09:25:37.204Z,6.84
2018-11-22T09:28:25.640Z,7.03
2018-11-22T09:34:44.568Z,6.98
2018-11-22T09:37:32.968Z,7.45
2018-11-22T09:40:22.955Z,7.22
2018-11-22T09:43:04.661Z,7.34
2018-11-22T09:45:45.642Z,7.40
2018-11-22T09:48:27.422Z,6.75
2018-11-22T09:51:08.655Z,7.01
2018-11-22T09:53:49.984Z,7.14
2018-11-22T09:56:31.425Z,7.39
2018-11-22T09:59:12.467Z,7.21
2018-11-22T10:01:41.501Z,7.01
2018-11-22T10:04:10.683Z,7.28
2018-11-22T10:06:39.777Z,6.93
2018-11-22T10:12:40.158Z,7.63
2018-11-22T10:15:30.188Z,6.91
2018-11-22T10:18:18.769Z,7.46
2018-11-22T10:21:07.138Z,7.21
2018-11-22T10:23:55.683Z,6.90
2018-11-22T10:26:43.460Z,7.01
2018-11-22T10:29:31.906Z,7.04
2018-11-22T10:32:20.172Z,7.15
2018-11-22T10:35:09.186Z,7.06
2018-11-22T10:37:38.184Z,7.40
2018-11-22T10:40:26.810Z,6.95
2018-11-22T10:43:15.236Z,7.30
2018-11-22T10:46:03.590Z,7.58
2018-11-22T10:48:52.021Z,7.58
2018-11-22T10:51:40.361Z,7.46
2018-11-22T10:54:28.765Z,7.46
2018-11-22T10:57:17.080Z,7.20
2018-11-22T11:00:07.910Z,7.56
2018-11-22T11:02:55.935Z,7.06
2018-11-22T11:06:03.383Z,7.03
2018-11-22T11:08:51.731Z,7.03
2018-11-22T11:11:40.111Z,7.12
2018-11-22T11:14:09.162Z,7.51
2018-11-22T11:16:57.605Z,7.36
2018-11-22T11:19:45.954Z,7.18
2018-11-22T11:22:34.345Z,7.53
2018-11-22T11:25:22.756Z,7.69
2018-11-22T11:28:11.128Z,7.82
2018-11-22T11:30:40.102Z,7.25
2018-11-22T11:33:09.582Z,7.68
2018-11-22T11:35:57.967Z,7.59
2018-11-22T11:38:45.461Z,7.95
2018-11-22T11:41:33.854Z,7.46
2018-11-22T11:44:22.484Z,7.06
2018-11-22T11:47:10.833Z,7.25
2018-11-22T11:49:59.728Z,7.49
2018-11-22T11:52:48.056Z,7.31
2018-11-22T11:55:36.873Z,7.38
2018-11-22T11:58:25.250Z,7.34
2018-11-22T12:01:14.197Z,7.12
2018-11-22T12:03:43.302Z,7.62
2018-11-22T12:06:31.816Z,7.43
2018-11-22T12:09:20.103Z,7.95
2018-11-22T12:12:08.469Z,7.86
2018-11-22T12:19:00.669Z,7.58
2018-11-22T12:21:49.043Z,7.65
2018-11-22T12:24:18.127Z,7.68
2018-11-22T12:27:06.525Z,8.22
2018-11-22T12:29:54.904Z,7.73
2018-11-22T12:33:02.329Z,7.92
2018-11-22T12:36:09.766Z,7.81
2018-11-22T12:38:58.165Z,7.99
2018-11-22T12:41:46.574Z,8.15
2018-11-22T12:44:28.106Z,8.48
2018-11-22T12:47:09.404Z,7.74
2018-11-22T12:49:38.360Z,7.42
2018-11-22T12:52:26.776Z,7.53
2018-11-22T12:54:56.003Z,7.79
2018-11-22T12:57:44.469Z,7.61
2018-11-22T13:00:15.210Z,7.65
2018-11-22T13:02:44.505Z,7.77
2018-11-22T13:05:14.933Z,7.85
2018-11-22T13:08:03.398Z,7.60
2018-11-22T13:10:51.847Z,8.21
2018-11-22T13:13:40.250Z,8.46
2018-11-22T13:16:28.694Z,8.31
2018-11-22T13:19:17.486Z,7.93
2018-11-22T13:22:06.027Z,8.17
2018-11-22T13:24:54.437Z,7.86
2018-11-22T13:27:43.091Z,7.78
2018-11-22T13:30:31.519Z,7.68
2018-11-22T13:33:00.654Z,7.64
2018-11-22T13:35:49.030Z,7.93
2018-11-22T13:38:37.322Z,8.15
2018-11-22T13:41:25.685Z,8.06
2018-11-22T13:44:14.009Z,7.89
2018-11-22T13:47:02.559Z,8.32
2018-11-22T13:49:50.993Z,7.79
2018-11-22T13:52:39.387Z,7.68
2018-11-22T13:55:27.866Z,8.08
2018-11-22T13:57:59.351Z,8.42
2018-11-22T14:00:47.680Z,8.59
2018-11-22T14:03:36.146Z,8.24
2018-11-22T14:06:24.519Z,7.95
2018-11-22T14:09:12.934Z,7.48
2018-11-22T14:12:01.392Z,7.95
2018-11-22T14:14:49.754Z,8.07
2018-11-22T14:18:00.080Z,8.63
2018-11-22T14:20:48.475Z,8.34
2018-11-22T14:23:36.963Z,8.33
2018-11-22T14:26:25.329Z,8.55
2018-11-22T14:29:13.705Z,8.18
2018-11-22T14:31:42.890Z,8.43
2018-11-22T14:34:31.316Z,8.24
2018-11-22T14:37:19.753Z,8.51
2018-11-22T14:40:09.364Z,8.21
2018-11-22T14:42:58.054Z,8.25
2018-11-22T14:45:27.674Z,8.31
2018-11-22T14:48:16.094Z,8.58
2018-11-22T14:51:23.888Z,8.75
2018-11-22T14:54:12.298Z,8.43
2018-11-22T14:57:00.794Z,8.49
2018-11-22T14:59:49.251Z,8.21
2018-11-22T15:02:37.914Z,8.25
2018-11-22T15:05:26.367Z,8.62
2018-11-22T15:08:14.698Z,8.74
2018-11-22T15:11:03.039Z,8.66
2018-11-22T15:13:32.116Z,8.51
2018-11-22T15:16:20.456Z,8.03
2018-11-22T15:19:08.872Z,8.45
2018-11-22T15:21:57.206Z,8.69
2018-11-22T15:24:45.844Z,8.18
2018-11-22T15:27:34.187Z,8.35
2018-11-22T15:30:03.661Z,8.49
2018-11-22T15:32:52.060Z,8.48
2018-11-22T15:35:40.501Z,8.57
2018-11-22T15:38:28.892Z,8.52
2018-11-22T15:43:59.353Z,8.48
2018-11-22T15:46:40.928Z,8.41
2018-11-22T15:49:22.769Z,8.24
2018-11-22T15:51:51.759Z,8.25
2018-11-22T15:54:47.221Z,8.15
2018-11-22T15:57:35.798Z,8.06
2018-11-22T16:00:46.510Z,7.97
2018-11-22T16:03:15.458Z,7.97
2018-11-22T16:06:03.936Z,8.20
2018-11-22T16:08:52.255Z,8.21
2018-11-22T16:11:40.612Z,8.09
2018-11-22T16:14:28.973Z,8.07
2018-11-22T16:17:17.348Z,8.01
2018-11-22T16:20:06.258Z,7.88
2018-11-22T16:22:54.754Z,7.81
2018-11-22T16:25:43.050Z,7.79
2018-11-22T16:28:31.520Z,7.88
2018-11-22T16:31:19.863Z,7.76
2018-11-22T16:34:08.261Z,7.78
2018-11-22T16:40:11.863Z,7.66
2018-11-22T16:43:01.670Z,7.53
2018-11-22T16:45:50.049Z,7.28
2018-11-22T16:48:38.451Z,7.58
2018-11-22T16:51:26.762Z,7.50
2018-11-22T16:54:15.153Z,7.35
2018-11-22T16:57:03.673Z,7.24
2018-11-22T16:59:52.051Z,7.28
2018-11-22T17:02:40.394Z,7.39
2018-11-22T17:05:29.082Z,7.37
2018-11-22T17:08:17.437Z,7.17
2018-11-22T17:11:05.856Z,7.26
2018-11-22T17:13:54.190Z,7.18
2018-11-22T17:16:42.602Z,7.18
2018-11-22T17:19:31.105Z,6.70
2018-11-22T17:22:19.527Z,6.70
2018-11-22T17:24:48.830Z,6.39
2018-11-22T17:31:10.940Z,7.01
2018-11-22T17:33:59.346Z,6.74
2018-11-22T17:36:47.706Z,6.91
2018-11-22T17:39:36.150Z,6.99
2018-11-22T17:42:24.583Z,6.97
2018-11-22T17:45:14.414Z,7.09
2018-11-22T17:48:03.160Z,7.08
2018-11-22T17:50:51.529Z,6.99
2018-11-22T17:53:39.955Z,6.91
2018-11-22T17:56:28.346Z,6.91
2018-11-22T17:59:16.692Z,6.81
2018-11-22T18:01:45.723Z,6.84
2018-11-22T18:04:14.806Z,6.73
2018-11-22T18:07:03.241Z,6.62
2018-11-22T18:09:51.616Z,6.83
2018-11-22T18:12:40.378Z,6.71
2018-11-22T18:15:29.974Z,6.80
2018-11-22T18:18:18.389Z,6.61
2018-11-22T18:21:06.863Z,6.43
2018-11-22T18:23:55.255Z,6.45
2018-11-22T18:26:24.301Z,6.35
2018-11-22T18:29:12.651Z,6.41
2018-11-22T18:32:01.053Z,6.36
2018-11-22T18:34:49.433Z,6.35
2018-11-22T18:37:40.283Z,6.27
2018-11-22T18:40:30.198Z,6.21
2018-11-22T18:43:11.597Z,6.16
2018-11-22T18:45:52.482Z,6.23
2018-11-22T18:48:34.260Z,6.19
2018-11-22T18:51:15.835Z,6.23
2018-11-22T18:53:57.538Z,6.19
2018-11-22T18:56:26.720Z,5.99
2018-11-22T18:59:15.078Z,5.97
2018-11-22T19:02:03.449Z,6.35
2018-11-22T19:04:51.820Z,5.93
2018-11-22T19:07:40.850Z,6.01
2018-11-22T19:10:48.281Z,5.80
2018-11-22T19:13:36.694Z,5.93
2018-11-22T19:16:25.070Z,5.79
2018-11-22T19:19:13.479Z,5.79
2018-11-22T19:22:01.830Z,5.78
2018-11-22T19:24:50.200Z,5.80
2018-11-22T19:27:38.551Z,5.94
2018-11-22T19:30:37.007Z,5.68
2018-11-22T19:33:20.329Z,5.57
2018-11-22T19:36:08.770Z,5.36
2018-11-22T19:38:57.061Z,5.53
2018-11-22T19:41:45.461Z,5.72
2018-11-22T19:44:33.815Z,5.25
2018-11-22T19:47:03.025Z,5.56
2018-11-22T19:49:51.350Z,5.52
2018-11-22T19:52:39.730Z,5.58
2018-11-22T19:55:29.319Z,5.63
2018-11-22T19:58:18.244Z,5.37
2018-11-22T20:00:47.343Z,5.27
2018-11-22T20:03:35.738Z,5.27
2018-11-22T20:06:24.167Z,5.22
2018-11-22T20:09:12.654Z,5.28
2018-11-22T20:11:41.709Z,5.44
2018-11-22T20:14:30.025Z,5.45
2018-11-22T20:17:18.402Z,5.46
2018-11-22T20:20:07.913Z,5.54
2018-11-22T20:22:56.722Z,5.35
2018-11-22T20:25:45.192Z,5.41
2018-11-22T20:28:33.639Z,5.37
2018-11-22T20:31:21.992Z,5.35
2018-11-22T20:34:10.537Z,5.38
2018-11-22T20:36:58.919Z,5.76
2018-11-22T20:39:47.298Z,5.76
2018-11-22T20:42:16.683Z,5.58
2018-11-22T20:45:06.108Z,5.62
2018-11-22T20:48:13.618Z,5.44
2018-11-22T20:51:02.122Z,5.23
2018-11-22T20:53:31.299Z,5.78
2018-11-22T20:56:20.006Z,5.68
2018-11-22T20:58:48.890Z,5.47
2018-11-22T21:01:37.338Z,5.74
2018-11-22T21:04:25.937Z,5.80
2018-11-22T21:06:55.688Z,5.64
2018-11-22T21:09:43.818Z,5.82
2018-11-22T21:12:12.832Z,5.57
2018-11-22T21:15:01.253Z,5.66
2018-11-22T21:17:30.528Z,5.70
2018-11-22T21:20:20.858Z,5.79
2018-11-22T21:22:49.989Z,5.57
2018-11-22T21:25:38.559Z,5.59
2018-11-22T21:28:26.920Z,5.43
2018-11-22T21:30:56.109Z,5.63
2018-11-22T21:33:25.299Z,5.66
2018-11-22T21:36:13.720Z,5.40
2018-11-22T21:39:02.444Z,5.32
2018-11-22T21:44:51.030Z,5.55
2018-11-22T21:47:31.960Z,5.59
2018-11-22T21:50:14.595Z,5.49
2018-11-22T21:52:56.210Z,5.61
2018-11-22T21:55:38.139Z,5.44
2018-11-22T21:58:07.087Z,5.42
2018-11-22T22:00:55.550Z,5.44
2018-11-22T22:03:43.978Z,5.23
2018-11-22T22:06:32.410Z,5.20
2018-11-22T22:09:20.895Z,5.17
2018-11-22T22:11:49.991Z,5.20
2018-11-22T22:14:38.290Z,5.13
2018-11-22T22:17:26.887Z,5.03
2018-11-22T22:20:19.811Z,5.01
2018-11-22T22:23:13.247Z,4.71
2018-11-22T22:25:56.590Z,4.66
2018-11-22T22:28:44.928Z,4.60
2018-11-22T22:31:33.266Z,4.59
2018-11-22T22:34:21.862Z,4.65
2018-11-22T22:37:10.218Z,4.79
2018-11-22T22:40:03.580Z,4.97
2018-11-22T22:42:47.891Z,4.95
2018-11-22T22:45:36.260Z,4.89
2018-11-22T22:48:24.706Z,4.66
2018-11-22T22:51:13.207Z,4.70
2018-11-22T22:54:01.628Z,4.89
2018-11-22T22:56:50.692Z,4.63
2018-11-22T22:59:39.058Z,4.70
2018-11-22T23:02:27.510Z,4.70
2018-11-22T23:05:15.968Z,4.50
2018-11-22T23:08:06.875Z,4.58
2018-11-22T23:10:55.212Z,4.47
2018-11-22T23:13:43.619Z,4.58
2018-11-22T23:16:32.045Z,4.71
2018-11-22T23:19:20.485Z,4.52
2018-11-22T23:22:08.909Z,4.37
2018-11-22T23:24:37.954Z,4.50
2018-11-22T23:27:26.291Z,4.45
2018-11-22T23:30:19.076Z,4.45
2018-11-22T23:33:08.812Z,4.52
2018-11-22T23:35:57.153Z,4.48
2018-11-22T23:38:45.544Z,4.51
2018-11-22T23:41:14.591Z,4.43
2018-11-22T23:44:03.093Z,4.42
2018-11-22T23:46:51.491Z,4.47
2018-11-22T23:49:39.892Z,4.33
2018-11-22T23:52:09.068Z,4.31
2018-11-22T23:54:57.556Z,4.31
2018-11-22T23:57:46.076Z,4.41
